Warning: fopen(/var/www/metroair/shared/private/wxdata/TAF/AVWX/taf_LOWW): failed to open stream: Permission denied in /var/www/metroair/shared/private/library/orig_library/lib_airport.php on line 533

Warning: fwrite() expects parameter 1 to be resource, boolean given in /var/www/metroair/shared/private/library/orig_library/lib_airport.php on line 534

Warning: fclose() expects parameter 1 to be resource, boolean given in /var/www/metroair/shared/private/library/orig_library/lib_airport.php on line 535

MET6414 - Vienna to London Heathrow

Boeing 737-800
G-FLII - Fly UK
1 hr 55 mins
689 nm
Fly UK Codeshare - Daily

Departure

Departing from
Vienna (VIE)
Departure gate
Terminal 3
Scheduled Departure
GMT 1310
Local 1410
METAR LOWW 161220Z 35007KT 310V030 9999 FEW013 SCT020 BKN280 M00/M05 Q1021 R88/19//95 NOSIG
TAF TAF LOWW 161115Z 1612/1718 34010KT 9999 FEW030 SCT150 BKN300 TX01/1612Z TNM04/1700Z TEMPO 1612/1718 BKN030 PROB40 TEMPO 1700/1709 BKN014 TEMPO 1709/1715 34016KT
  • No charts available

Arrival

Arriving at
London Heathrow (LHR)
Arrival gate
Terminal 3
Scheduled Arrival
GMT 1505
Local 1505
METAR EGLL 161220Z 11005KT 6000 -RA FEW005 SCT007 BKN015 05/05 Q1028 TEMPO BKN014
TAF TAF EGLL 161054Z 1612/1718 12003KT 7000 -RA SCT009 BKN016 TEMPO 1612/1618 4800 -RADZ BKN012 BECMG 1616/1619 9999 NSW PROB30 TEMPO 1703/1709 5000 BR BKN004

Route Map

Planning Resources

MOTIX UL610 PABSA UQ610 INBED UL610 BATTY UL608 BUB/N0447F400 UL608 DENUT UL610 BULAM DCT DVR BIG3C
MOTIX UL610 BATTY UL608 LOGAN
MOTI1A MOTIX UL610 BATTY UL608 LOGAN WEALD1E
SNU2A SNU UL610 UPALA Z744 WUR CHA FFM LNO LGE AFI KOK WEAL3C BIG
N0449F380 MOTIX UL610 BATTY UL608 COA UL179 SASKI UL608 SUMUM L608 LOGAN
Route:
OFP Layout:
Units:
Detailed Navlog:
ETOPS Planning:
Plan Stepclimbs:
Runway Analysis:
Include NOTAMS:
FIR NOTAMS:
Flight Maps:

Return Flights

MET6413 (Operated by Fly UK)
Boeing 737-800
1045 GMT

Popularity

Hub Current Bids PiReps this month Total PiReps
KMCI 0 0 2
KLAX 0 0 2
KBOS 0 0 2